Time;durP1;ratioP1;P1;durP2;ratioP2;P2;SDS_P1;SDS_P2;PMS_P1;PMS_P2;Temp;Humidity;BMP_temperature;BMP_pressure;BME280_temperature;BME280_humidity;BME280_pressure;Samples;Min_cycle;Max_cycle;Signal;HPM_P1;HPM_P2
2022/01/10 00:02:35;;;;;;;1.20;0.70;;;;;;;;;;5078963;28;20032;-72
2022/01/10 00:05:40;;;;;;;2.00;1.33;;;;;;;;;;5067496;28;20028;-72
2022/01/10 00:08:44;;;;;;;2.42;1.45;;;;;;;;;;5079199;28;20036;-72
2022/01/10 00:11:49;;;;;;;3.10;2.25;;;;;;;;;;5078972;28;20036;-72
2022/01/10 00:14:52;;;;;;;4.40;2.17;;;;;;;;;;5091608;28;20503;-73
2022/01/10 00:17:57;;;;;;;3.20;2.20;;;;;;;;;;5091517;28;20369;-72
2022/01/10 00:21:01;;;;;;;1.45;1.20;;;;;;;;;;5090974;28;20044;-72
2022/01/10 00:24:06;;;;;;;3.15;1.23;;;;;;;;;;5079050;28;20032;-72
2022/01/10 00:27:10;;;;;;;1.63;0.75;;;;;;;;;;5091434;28;20044;-72
2022/01/10 00:30:15;;;;;;;1.20;0.77;;;;;;;;;;5091297;28;20032;-72
2022/01/10 00:33:19;;;;;;;0.77;0.60;;;;;;;;;;5091244;28;20035;-72
2022/01/10 00:36:25;;;;;;;1.15;0.70;;;;;;;;;;5078722;28;20024;-73
2022/01/10 00:39:29;;;;;;;1.50;1.00;;;;;;;;;;5091032;28;20555;-72
2022/01/10 00:42:34;;;;;;;0.85;0.70;;;;;;;;;;5067162;28;20360;-72
2022/01/10 00:45:38;;;;;;;5.18;1.85;;;;;;;;;;5091194;28;20036;-72
2022/01/10 00:48:42;;;;;;;2.00;1.30;;;;;;;;;;5078541;28;20036;-72
2022/01/10 00:51:46;;;;;;;2.33;1.30;;;;;;;;;;5091038;28;20040;-72
2022/01/10 00:54:51;;;;;;;1.20;0.82;;;;;;;;;;5081707;28;20040;-72
2022/01/10 00:57:55;;;;;;;3.35;0.80;;;;;;;;;;5071287;28;20036;-72
2022/01/10 01:00:59;;;;;;;2.15;0.70;;;;;;;;;;5071002;28;20044;-72
2022/01/10 01:04:04;;;;;;;0.60;0.30;;;;;;;;;;5059685;28;20036;-72
2022/01/10 01:07:08;;;;;;;0.47;0.40;;;;;;;;;;5095098;28;20629;-72
2022/01/10 01:10:43;;;;;;;0.82;0.50;;;;;;;;;;5094987;28;20035;-72
2022/01/10 01:17:09;;;;;;;0.55;0.50;;;;;;;;;;5094933;28;20384;-72
2022/01/10 01:20:30;;;;;;;0.70;0.60;;;;;;;;;;5094615;28;20475;-72
2022/01/10 01:26:56;;;;;;;0.55;0.50;;;;;;;;;;5082183;28;20044;-72
2022/01/10 01:30:01;;;;;;;0.52;0.40;;;;;;;;;;5094773;28;20036;-72
2022/01/10 01:33:05;;;;;;;0.55;0.30;;;;;;;;;;5070354;28;20028;-72
2022/01/10 01:36:10;;;;;;;0.40;0.40;;;;;;;;;;5081592;28;20040;-72
2022/01/10 01:39:21;;;;;;;0.63;0.50;;;;;;;;;;5081985;28;20487;-72
2022/01/10 01:45:40;;;;;;;0.40;0.30;;;;;;;;;;5081976;28;20035;-72
2022/01/10 01:48:46;;;;;;;0.30;0.30;;;;;;;;;;5081749;28;20357;-72
2022/01/10 01:51:50;;;;;;;0.40;0.40;;;;;;;;;;5081812;28;20032;-72
2022/01/10 01:54:55;;;;;;;0.30;0.30;;;;;;;;;;5094286;28;20028;-72
2022/01/10 01:57:59;;;;;;;0.60;0.40;;;;;;;;;;5070205;28;20040;-72
2022/01/10 02:01:04;;;;;;;1.25;0.30;;;;;;;;;;5081358;28;20380;-72
2022/01/10 02:04:09;;;;;;;0.45;0.30;;;;;;;;;;5070014;28;20356;-72
2022/01/10 02:07:13;;;;;;;0.28;0.20;;;;;;;;;;5058164;28;20040;-72
2022/01/10 02:10:21;;;;;;;0.35;0.30;;;;;;;;;;5069887;28;20036;-73
2022/01/10 02:13:26;;;;;;;0.43;0.40;;;;;;;;;;5081392;28;20040;-72
2022/01/10 02:16:54;;;;;;;0.20;0.20;;;;;;;;;;5081501;28;20368;-72
2022/01/10 02:20:12;;;;;;;0.40;0.40;;;;;;;;;;5081243;28;20044;-72
2022/01/10 02:23:17;;;;;;;0.30;0.30;;;;;;;;;;5081344;28;20151;-72
2022/01/10 02:26:51;;;;;;;0.40;0.40;;;;;;;;;;5093597;28;20044;-72
2022/01/10 02:29:55;;;;;;;0.38;0.30;;;;;;;;;;5081156;28;20364;-72
2022/01/10 02:33:01;;;;;;;0.40;0.30;;;;;;;;;;5081008;28;20044;-72
2022/01/10 02:39:11;;;;;;;0.47;0.40;;;;;;;;;;5069317;28;20112;-72
2022/01/10 02:42:15;;;;;;;0.57;0.32;;;;;;;;;;5080931;28;20040;-72
2022/01/10 02:45:21;;;;;;;1.48;0.35;;;;;;;;;;5069931;28;20032;-72
2022/01/10 02:48:25;;;;;;;1.50;0.50;;;;;;;;;;5093207;28;20040;-72
2022/01/10 02:51:29;;;;;;;2.30;1.10;;;;;;;;;;5080568;28;20036;-72
2022/01/10 02:54:34;;;;;;;1.10;0.70;;;;;;;;;;5080216;28;20032;-72
2022/01/10 02:57:46;;;;;;;0.40;0.38;;;;;;;;;;5080704;28;20048;-72
2022/01/10 03:00:51;;;;;;;0.30;0.30;;;;;;;;;;5080296;28;20493;-72
2022/01/10 03:03:56;;;;;;;0.77;0.40;;;;;;;;;;5080776;28;20484;-72
2022/01/10 03:07:00;;;;;;;0.40;0.40;;;;;;;;;;5068962;28;20039;-72
2022/01/10 03:10:06;;;;;;;0.50;0.40;;;;;;;;;;5068898;28;20032;-72
2022/01/10 03:13:10;;;;;;;1.35;0.73;;;;;;;;;;5080556;28;20039;-72
2022/01/10 03:16:14;;;;;;;1.25;0.75;;;;;;;;;;5080184;28;20028;-72
2022/01/10 03:19:19;;;;;;;0.80;0.45;;;;;;;;;;5092660;28;20035;-72
2022/01/10 03:22:23;;;;;;;0.30;0.30;;;;;;;;;;5092640;28;20044;-72
2022/01/10 03:25:27;;;;;;;0.57;0.50;;;;;;;;;;5094502;28;20039;-72
2022/01/10 03:28:36;;;;;;;1.23;0.60;;;;;;;;;;5080039;28;20040;-72
2022/01/10 03:31:40;;;;;;;0.82;0.60;;;;;;;;;;5079700;28;20036;-72
2022/01/10 03:34:45;;;;;;;0.40;0.32;;;;;;;;;;5092444;28;20364;-72
2022/01/10 03:37:49;;;;;;;0.22;0.22;;;;;;;;;;5067959;28;20043;-72
2022/01/10 03:40:54;;;;;;;1.30;0.30;;;;;;;;;;5079315;28;20488;-72
2022/01/10 03:44:01;;;;;;;0.80;0.40;;;;;;;;;;5079697;28;20032;-72
2022/01/10 03:47:06;;;;;;;1.95;0.30;;;;;;;;;;5079459;28;20040;-72
2022/01/10 03:50:10;;;;;;;0.40;0.30;;;;;;;;;;5079520;28;20040;-72
2022/01/10 03:53:14;;;;;;;0.30;0.30;;;;;;;;;;5079461;28;20032;-72
2022/01/10 03:56:20;;;;;;;0.35;0.30;;;;;;;;;;5079447;28;20479;-72
2022/01/10 03:59:25;;;;;;;0.52;0.38;;;;;;;;;;5079080;28;20032;-72
2022/01/10 04:02:32;;;;;;;0.45;0.40;;;;;;;;;;5079043;28;20044;-72
2022/01/10 04:05:36;;;;;;;0.70;0.40;;;;;;;;;;5056404;28;20040;-72
2022/01/10 04:08:41;;;;;;;0.32;0.30;;;;;;;;;;5079324;28;20040;-72
2022/01/10 04:11:45;;;;;;;0.20;0.20;;;;;;;;;;5079063;28;20384;-72
2022/01/10 04:14:49;;;;;;;0.30;0.30;;;;;;;;;;5056342;28;20040;-72
2022/01/10 04:17:56;;;;;;;0.20;0.20;;;;;;;;;;5067677;28;20036;-72
2022/01/10 04:21:01;;;;;;;0.80;0.30;;;;;;;;;;5055769;28;20044;-72
2022/01/10 04:24:06;;;;;;;0.40;0.30;;;;;;;;;;5091732;28;20032;-72
2022/01/10 04:27:11;;;;;;;0.30;0.25;;;;;;;;;;5067085;28;20475;-72
2022/01/10 04:30:15;;;;;;;0.25;0.25;;;;;;;;;;5078772;28;20032;-72
2022/01/10 04:33:20;;;;;;;0.70;0.30;;;;;;;;;;5079023;28;20036;-72
2022/01/10 04:36:27;;;;;;;0.30;0.30;;;;;;;;;;5078558;28;20036;-72
2022/01/10 04:39:33;;;;;;;0.85;0.30;;;;;;;;;;5067137;28;20044;-72
2022/01/10 04:42:38;;;;;;;0.20;0.20;;;;;;;;;;5055627;28;20392;-72
2022/01/10 04:45:43;;;;;;;0.52;0.30;;;;;;;;;;5078890;28;20033;-72
2022/01/10 04:48:48;;;;;;;0.30;0.30;;;;;;;;;;5078878;28;20515;-72
2022/01/10 04:51:53;;;;;;;0.30;0.30;;;;;;;;;;5066860;28;20028;-72
2022/01/10 04:54:59;;;;;;;1.50;0.93;;;;;;;;;;5078885;28;20044;-72
2022/01/10 04:58:03;;;;;;;0.73;0.45;;;;;;;;;;5078537;28;20028;-72
2022/01/10 05:01:08;;;;;;;2.25;0.50;;;;;;;;;;5078039;28;20048;-72
2022/01/10 05:04:12;;;;;;;1.98;0.80;;;;;;;;;;5078530;28;20040;-72
2022/01/10 05:07:16;;;;;;;1.25;0.70;;;;;;;;;;5066929;28;20377;-72
2022/01/10 05:10:23;;;;;;;3.67;0.60;;;;;;;;;;5078435;28;20035;-72
2022/01/10 05:13:27;;;;;;;1.45;0.85;;;;;;;;;;5066995;28;20048;-72
2022/01/10 05:16:35;;;;;;;1.55;0.90;;;;;;;;;;5078775;28;20032;-72
2022/01/10 05:19:39;;;;;;;0.40;0.30;;;;;;;;;;5090936;28;20028;-72
2022/01/10 05:22:44;;;;;;;0.82;0.60;;;;;;;;;;5078091;28;20491;-72
2022/01/10 05:25:49;;;;;;;0.98;0.70;;;;;;;;;;5078006;28;20033;-73
2022/01/10 05:28:55;;;;;;;0.90;0.40;;;;;;;;;;5078402;28;20036;-72
2022/01/10 05:32:00;;;;;;;0.85;0.60;;;;;;;;;;5078156;28;20044;-72
2022/01/10 05:35:16;;;;;;;0.68;0.47;;;;;;;;;;5078083;28;20036;-72
2022/01/10 05:38:20;;;;;;;1.27;0.70;;;;;;;;;;5090311;28;20488;-72
2022/01/10 05:41:24;;;;;;;3.85;1.73;;;;;;;;;;5079944;28;20044;-72
2022/01/10 05:44:30;;;;;;;2.78;1.42;;;;;;;;;;5081830;28;20032;-72
2022/01/10 05:47:40;;;;;;;5.07;1.80;;;;;;;;;;5081529;28;20044;-72
2022/01/10 05:50:44;;;;;;;1.52;0.88;;;;;;;;;;5081801;28;20479;-72
2022/01/10 05:53:50;;;;;;;4.85;0.57;;;;;;;;;;5081853;28;20040;-72
2022/01/10 05:56:55;;;;;;;1.75;1.20;;;;;;;;;;5070265;28;20040;-72
2022/01/10 06:00:04;;;;;;;1.45;0.70;;;;;;;;;;5081542;28;20036;-72
2022/01/10 06:03:18;;;;;;;2.38;0.80;;;;;;;;;;5094116;28;20044;-72
2022/01/10 06:06:30;;;;;;;1.15;0.70;;;;;;;;;;5081478;28;20472;-72
2022/01/10 06:09:34;;;;;;;1.27;0.98;;;;;;;;;;5069910;28;20044;-72
2022/01/10 06:12:38;;;;;;;1.88;0.88;;;;;;;;;;5081121;28;20044;-72
2022/01/10 06:15:44;;;;;;;1.38;0.65;;;;;;;;;;5093767;28;20683;-72
2022/01/10 06:18:48;;;;;;;1.63;0.70;;;;;;;;;;5081340;28;20356;-72
2022/01/10 06:21:53;;;;;;;0.82;0.60;;;;;;;;;;5069286;28;20039;-72
2022/01/10 06:24:58;;;;;;;2.15;0.73;;;;;;;;;;5093764;28;20036;-72
2022/01/10 06:28:05;;;;;;;1.85;1.10;;;;;;;;;;5081180;28;20036;-72
2022/01/10 06:31:10;;;;;;;1.85;1.20;;;;;;;;;;5081102;28;20032;-71
2022/01/10 06:34:24;;;;;;;3.28;1.45;;;;;;;;;;5081000;28;20487;-71
2022/01/10 06:37:29;;;;;;;1.85;1.00;;;;;;;;;;5080691;28;20040;-72
2022/01/10 06:40:33;;;;;;;1.30;0.80;;;;;;;;;;5093107;28;20040;-72
2022/01/10 06:43:39;;;;;;;1.80;1.27;;;;;;;;;;5080853;28;20032;-74
2022/01/10 06:46:46;;;;;;;1.27;0.85;;;;;;;;;;5080925;28;20036;-74
2022/01/10 06:49:51;;;;;;;1.95;1.35;;;;;;;;;;5080659;28;20059;-75
2022/01/10 06:52:57;;;;;;;1.25;1.10;;;;;;;;;;5069299;28;20040;-72
2022/01/10 06:56:05;;;;;;;2.33;2.00;;;;;;;;;;5080699;28;20028;-74
2022/01/10 06:59:12;;;;;;;1.75;1.50;;;;;;;;;;5080590;28;20483;-74
2022/01/10 07:02:21;;;;;;;2.35;1.30;;;;;;;;;;5068651;28;20044;-74
2022/01/10 07:05:28;;;;;;;3.33;2.22;;;;;;;;;;5080417;28;20044;-72
2022/01/10 07:08:41;;;;;;;10.32;5.35;;;;;;;;;;5080386;28;20040;-74
2022/01/10 07:11:46;;;;;;;2.83;1.80;;;;;;;;;;5080097;28;20039;-73
2022/01/10 07:14:51;;;;;;;5.40;2.95;;;;;;;;;;5080318;28;20488;-73
2022/01/10 07:17:56;;;;;;;6.13;3.97;;;;;;;;;;5080186;28;20040;-71
2022/01/10 07:21:02;;;;;;;6.82;3.03;;;;;;;;;;5079809;28;20040;-73
2022/01/10 07:24:07;;;;;;;9.40;3.08;;;;;;;;;;5080175;28;20044;-72
2022/01/10 07:27:12;;;;;;;4.78;2.40;;;;;;;;;;5092270;28;20039;-72
2022/01/10 07:30:16;;;;;;;3.58;2.00;;;;;;;;;;5092353;28;20036;-71
2022/01/10 07:33:20;;;;;;;3.15;2.05;;;;;;;;;;5079383;28;20499;-71
2022/01/10 07:36:25;;;;;;;3.15;1.80;;;;;;;;;;5091796;28;20036;-74
2022/01/10 07:39:29;;;;;;;4.60;2.33;;;;;;;;;;5067997;28;20047;-72
2022/01/10 07:42:33;;;;;;;5.93;2.78;;;;;;;;;;5079048;28;20043;-72
2022/01/10 07:45:46;;;;;;;5.43;2.25;;;;;;;;;;5067754;28;20036;-72
2022/01/10 07:48:52;;;;;;;4.32;2.40;;;;;;;;;;5092132;28;20040;-71
2022/01/10 07:51:57;;;;;;;5.90;2.38;;;;;;;;;;5091865;28;20039;-72
2022/01/10 07:55:02;;;;;;;7.30;2.55;;;;;;;;;;5091791;28;20039;-74
2022/01/10 07:58:06;;;;;;;3.83;2.30;;;;;;;;;;5091906;28;20040;-72
2022/01/10 08:01:10;;;;;;;4.07;2.20;;;;;;;;;;5078559;28;20044;-72
2022/01/10 08:04:15;;;;;;;6.22;2.70;;;;;;;;;;5078577;28;20028;-73
2022/01/10 08:07:19;;;;;;;6.32;2.70;;;;;;;;;;5091293;28;20028;-74
2022/01/10 08:10:23;;;;;;;8.88;3.13;;;;;;;;;;5079096;28;20036;-72
2022/01/10 08:13:27;;;;;;;8.00;3.30;;;;;;;;;;5091600;28;20364;-74
2022/01/10 08:16:32;;;;;;;8.93;3.55;;;;;;;;;;5091801;28;20036;-75
2022/01/10 08:19:36;;;;;;;5.95;2.78;;;;;;;;;;5091715;28;20044;-70
2022/01/10 08:22:40;;;;;;;4.57;2.55;;;;;;;;;;5091427;28;20052;-71
2022/01/10 08:25:45;;;;;;;9.02;3.55;;;;;;;;;;5091649;28;20476;-69
2022/01/10 08:28:49;;;;;;;9.38;4.43;;;;;;;;;;5091517;28;20044;-74
2022/01/10 08:31:53;;;;;;;7.05;2.35;;;;;;;;;;5091218;28;20029;-76
2022/01/10 08:34:57;;;;;;;5.72;2.85;;;;;;;;;;5091278;28;20063;-72
2022/01/10 08:38:02;;;;;;;7.50;2.90;;;;;;;;;;5078346;28;20048;-65
2022/01/10 08:41:06;;;;;;;8.00;3.40;;;;;;;;;;5066786;28;20044;-72
2022/01/10 08:44:10;;;;;;;7.43;3.03;;;;;;;;;;5078119;28;20036;-69
2022/01/10 08:47:15;;;;;;;10.45;2.50;;;;;;;;;;5091115;28;20040;-69
2022/01/10 08:50:19;;;;;;;7.88;3.10;;;;;;;;;;5078757;28;20044;-72
2022/01/10 08:53:24;;;;;;;10.68;3.58;;;;;;;;;;5090803;28;20405;-71
2022/01/10 08:56:28;;;;;;;5.88;3.03;;;;;;;;;;5078627;28;20506;-72
2022/01/10 08:59:32;;;;;;;7.05;2.75;;;;;;;;;;5066681;28;20036;-75
2022/01/10 09:02:37;;;;;;;9.15;3.05;;;;;;;;;;5078694;28;20222;-74
2022/01/10 09:05:41;;;;;;;10.30;3.90;;;;;;;;;;5090744;28;20039;-71
2022/01/10 09:08:47;;;;;;;7.25;3.33;;;;;;;;;;5090536;28;20047;-74
2022/01/10 09:11:52;;;;;;;8.82;4.20;;;;;;;;;;5090660;28;20048;-80
2022/01/10 09:14:56;;;;;;;8.85;3.30;;;;;;;;;;5068433;28;20365;-76
2022/01/10 09:18:00;;;;;;;10.50;3.90;;;;;;;;;;5070963;28;20044;-73
2022/01/10 09:21:05;;;;;;;9.77;4.38;;;;;;;;;;5094430;28;20427;-80
2022/01/10 09:24:09;;;;;;;8.23;3.45;;;;;;;;;;5070268;28;20368;-73
2022/01/10 09:27:14;;;;;;;13.95;3.97;;;;;;;;;;5082188;28;20500;-72
2022/01/10 09:30:19;;;;;;;7.35;3.83;;;;;;;;;;5094437;28;20051;-82
2022/01/10 09:33:23;;;;;;;13.85;4.47;;;;;;;;;;5070328;28;20036;-75
2022/01/10 09:36:28;;;;;;;11.60;3.80;;;;;;;;;;5094197;28;20036;-79
2022/01/10 09:39:33;;;;;;;12.68;3.90;;;;;;;;;;5070747;28;20430;-70
2022/01/10 09:42:38;;;;;;;10.30;3.97;;;;;;;;;;5094461;28;20054;-74
2022/01/10 09:45:43;;;;;;;6.15;3.53;;;;;;;;;;5094099;28;20045;-72
2022/01/10 09:48:47;;;;;;;10.70;4.10;;;;;;;;;;5094387;28;20044;-74
2022/01/10 09:51:52;;;;;;;4.72;3.20;;;;;;;;;;5094150;28;20036;-73
2022/01/10 09:54:56;;;;;;;9.70;4.40;;;;;;;;;;5081836;28;20515;-74
2022/01/10 09:58:00;;;;;;;10.45;3.80;;;;;;;;;;5081695;28;20380;-70
2022/01/10 10:01:05;;;;;;;8.00;4.10;;;;;;;;;;5093825;28;20031;-69
2022/01/10 10:04:09;;;;;;;10.13;4.40;;;;;;;;;;5094012;28;20040;-69
2022/01/10 10:07:13;;;;;;;7.82;4.18;;;;;;;;;;5081483;28;20036;-68
2022/01/10 10:10:18;;;;;;;13.15;3.90;;;;;;;;;;5081105;28;20036;-72
2022/01/10 10:13:23;;;;;;;7.50;4.05;;;;;;;;;;5057869;28;20517;-76
2022/01/10 10:16:27;;;;;;;10.23;4.68;;;;;;;;;;5069309;28;20044;-75
2022/01/10 10:19:31;;;;;;;9.23;4.30;;;;;;;;;;5093417;28;20530;-75
2022/01/10 10:22:39;;;;;;;7.75;4.07;;;;;;;;;;5081397;28;20396;-72
2022/01/10 10:25:47;;;;;;;10.55;3.90;;;;;;;;;;5080803;28;20100;-73
2022/01/10 10:28:56;;;;;;;11.52;4.22;;;;;;;;;;5092168;28;20036;-74
2022/01/10 10:32:02;;;;;;;9.05;3.90;;;;;;;;;;5080671;28;20049;-72
2022/01/10 10:35:07;;;;;;;8.90;4.22;;;;;;;;;;5080901;28;20043;-69
2022/01/10 10:38:12;;;;;;;9.57;4.72;;;;;;;;;;5092728;28;20044;-72
2022/01/10 10:41:16;;;;;;;11.50;3.58;;;;;;;;;;5078372;28;20052;-69
2022/01/10 10:44:21;;;;;;;10.45;4.68;;;;;;;;;;5091215;28;20040;-70
2022/01/10 10:47:28;;;;;;;16.15;4.85;;;;;;;;;;5091070;28;20055;-69
2022/01/10 10:50:41;;;;;;;13.23;5.38;;;;;;;;;;5078407;28;20036;-71
2022/01/10 10:53:46;;;;;;;11.35;4.57;;;;;;;;;;5090822;28;20038;-75
2022/01/10 10:56:50;;;;;;;8.68;4.10;;;;;;;;;;5080471;28;20040;-70
2022/01/10 10:59:55;;;;;;;10.38;4.70;;;;;;;;;;5092769;28;20032;-72
2022/01/10 11:02:59;;;;;;;7.32;4.32;;;;;;;;;;5092648;28;20058;-70
2022/01/10 11:06:05;;;;;;;7.22;4.22;;;;;;;;;;5092582;28;20036;-71
2022/01/10 11:09:12;;;;;;;12.10;4.53;;;;;;;;;;5092738;28;20032;-68
2022/01/10 11:12:21;;;;;;;7.50;3.85;;;;;;;;;;5092550;28;20032;-69
2022/01/10 11:15:25;;;;;;;8.40;4.60;;;;;;;;;;5092717;28;20036;-70
2022/01/10 11:18:29;;;;;;;8.80;4.70;;;;;;;;;;5092181;28;20035;-70
2022/01/10 11:21:34;;;;;;;15.93;5.97;;;;;;;;;;5092172;28;20044;-69
2022/01/10 11:24:50;;;;;;;18.25;9.23;;;;;;;;;;5092350;28;20043;-73
2022/01/10 11:27:57;;;;;;;15.48;7.60;;;;;;;;;;5092271;28;20036;-71
2022/01/10 11:31:03;;;;;;;14.82;4.93;;;;;;;;;;5079633;28;20040;-71
2022/01/10 11:34:08;;;;;;;12.45;5.68;;;;;;;;;;5068447;28;20059;-71
2022/01/10 11:37:12;;;;;;;17.33;6.43;;;;;;;;;;5091655;28;20051;-71
2022/01/10 11:40:17;;;;;;;16.88;6.43;;;;;;;;;;5092032;28;20055;-73
2022/01/10 11:43:34;;;;;;;13.55;6.43;;;;;;;;;;5092290;28;20072;-73
2022/01/10 11:46:42;;;;;;;15.38;5.80;;;;;;;;;;5091992;28;20044;-71
2022/01/10 11:49:46;;;;;;;13.70;6.13;;;;;;;;;;5091880;28;20028;-73
2022/01/10 11:52:57;;;;;;;9.80;6.00;;;;;;;;;;5091743;28;20048;-70
2022/01/10 11:56:01;;;;;;;14.93;7.47;;;;;;;;;;5091829;28;20040;-69
2022/01/10 11:59:42;;;;;;;18.23;7.40;;;;;;;;;;5091406;28;20032;-71
2022/01/10 12:02:47;;;;;;;12.65;5.72;;;;;;;;;;5020834;28;20535;-70
2022/01/10 12:05:52;;;;;;;10.35;5.97;;;;;;;;;;5091246;28;20040;-71
2022/01/10 12:08:57;;;;;;;18.85;6.90;;;;;;;;;;5091649;28;20114;-72
2022/01/10 12:12:02;;;;;;;13.45;7.03;;;;;;;;;;5091630;28;20501;-70
2022/01/10 12:15:07;;;;;;;18.52;8.23;;;;;;;;;;5091500;28;20063;-71
2022/01/10 12:18:11;;;;;;;29.33;9.20;;;;;;;;;;5091521;28;20032;-70
2022/01/10 12:21:16;;;;;;;16.67;8.90;;;;;;;;;;5078386;28;20040;-70
2022/01/10 12:24:20;;;;;;;23.95;8.80;;;;;;;;;;5078857;28;20043;-70
2022/01/10 12:27:25;;;;;;;17.10;7.55;;;;;;;;;;5091415;28;20047;-70
2022/01/10 12:30:30;;;;;;;14.95;6.22;;;;;;;;;;5078664;28;20069;-70
2022/01/10 12:33:34;;;;;;;11.00;4.80;;;;;;;;;;5067262;28;20036;-69
2022/01/10 12:36:39;;;;;;;10.38;5.85;;;;;;;;;;5090581;28;20054;-69
2022/01/10 12:39:43;;;;;;;10.73;5.38;;;;;;;;;;5078735;28;20047;-69
2022/01/10 12:42:51;;;;;;;13.63;5.80;;;;;;;;;;5055451;28;20055;-70
2022/01/10 12:45:55;;;;;;;13.93;6.03;;;;;;;;;;5078840;28;20051;-70
2022/01/10 12:49:04;;;;;;;15.15;6.88;;;;;;;;;;5078622;28;20056;-70
2022/01/10 12:52:09;;;;;;;15.95;7.60;;;;;;;;;;5078712;28;20044;-70
2022/01/10 12:55:13;;;;;;;15.90;6.57;;;;;;;;;;5091033;28;20391;-71
2022/01/10 12:58:18;;;;;;;16.20;7.70;;;;;;;;;;5078438;28;20032;-71
2022/01/10 13:01:22;;;;;;;9.98;5.78;;;;;;;;;;5090598;28;20123;-71
2022/01/10 13:04:28;;;;;;;16.05;7.90;;;;;;;;;;5090722;28;20044;-69
2022/01/10 13:07:32;;;;;;;21.65;9.48;;;;;;;;;;5078559;28;20044;-69
2022/01/10 13:10:39;;;;;;;36.25;16.75;;;;;;;;;;5090536;28;20043;-69
2022/01/10 13:13:44;;;;;;;28.90;14.60;;;;;;;;;;5090977;28;20051;-69
2022/01/10 13:16:59;;;;;;;19.33;8.05;;;;;;;;;;5091114;28;20039;-69
2022/01/10 13:20:13;;;;;;;19.60;7.93;;;;;;;;;;5078186;28;20051;-69
2022/01/10 13:23:18;;;;;;;14.95;7.28;;;;;;;;;;5090873;28;20056;-68
2022/01/10 13:26:27;;;;;;;30.65;10.30;;;;;;;;;;5090545;28;20657;-69
2022/01/10 13:29:39;;;;;;;14.68;7.28;;;;;;;;;;5089584;28;20055;-70
2022/01/10 13:32:48;;;;;;;15.32;8.30;;;;;;;;;;5090722;28;20058;-70
2022/01/10 13:35:58;;;;;;;16.67;8.20;;;;;;;;;;5077796;28;20048;-71
2022/01/10 13:39:02;;;;;;;16.15;8.98;;;;;;;;;;5090712;28;20040;-71
2022/01/10 13:42:07;;;;;;;10.38;5.43;;;;;;;;;;5054259;28;20071;-71
2022/01/10 13:45:12;;;;;;;23.70;10.45;;;;;;;;;;5078211;28;20175;-71
2022/01/10 13:48:16;;;;;;;25.10;14.18;;;;;;;;;;5078192;28;20047;-71
2022/01/10 13:51:23;;;;;;;16.23;7.88;;;;;;;;;;5077894;28;20055;-71
2022/01/10 13:54:30;;;;;;;24.60;12.20;;;;;;;;;;5077969;28;20491;-71
2022/01/10 13:57:36;;;;;;;12.70;6.85;;;;;;;;;;5077946;28;20055;-71
2022/01/10 14:00:51;;;;;;;18.05;8.05;;;;;;;;;;5077871;28;20610;-71
2022/01/10 14:03:57;;;;;;;15.27;8.68;;;;;;;;;;5094172;28;20044;-71
2022/01/10 14:07:06;;;;;;;19.27;8.60;;;;;;;;;;5081538;28;20036;-71
2022/01/10 14:10:10;;;;;;;14.45;8.68;;;;;;;;;;5093615;28;20040;-71
2022/01/10 14:13:14;;;;;;;11.45;6.88;;;;;;;;;;5081433;28;20036;-71
2022/01/10 14:16:21;;;;;;;11.30;6.20;;;;;;;;;;5081156;28;20056;-71
2022/01/10 14:19:26;;;;;;;9.77;5.50;;;;;;;;;;5093945;28;20040;-71
2022/01/10 14:22:30;;;;;;;10.02;5.30;;;;;;;;;;5093443;28;20048;-71
2022/01/10 14:25:34;;;;;;;17.45;7.60;;;;;;;;;;5081194;28;20653;-71
2022/01/10 14:28:39;;;;;;;12.65;5.35;;;;;;;;;;5093470;28;20110;-71
2022/01/10 14:31:46;;;;;;;12.57;6.22;;;;;;;;;;5093461;28;20036;-70
2022/01/10 14:34:51;;;;;;;11.75;5.47;;;;;;;;;;5093480;28;20055;-71
2022/01/10 14:37:55;;;;;;;9.02;4.85;;;;;;;;;;5093208;28;20048;-71
2022/01/10 14:41:01;;;;;;;15.60;7.43;;;;;;;;;;5093090;28;20036;-71
2022/01/10 14:44:05;;;;;;;13.68;6.25;;;;;;;;;;5057777;28;20059;-70
2022/01/10 14:47:09;;;;;;;12.02;5.55;;;;;;;;;;5080586;28;20032;-71
2022/01/10 14:50:16;;;;;;;16.02;6.82;;;;;;;;;;5080308;28;20047;-71
2022/01/10 14:53:21;;;;;;;11.55;5.85;;;;;;;;;;5093225;28;20040;-71
2022/01/10 14:56:25;;;;;;;10.93;5.45;;;;;;;;;;5092957;28;20043;-71
2022/01/10 14:59:29;;;;;;;13.07;5.60;;;;;;;;;;5093050;28;20399;-71
2022/01/10 15:02:34;;;;;;;11.80;5.55;;;;;;;;;;5092524;28;20063;-71
2022/01/10 15:05:38;;;;;;;18.35;7.68;;;;;;;;;;5080430;28;20503;-71
2022/01/10 15:08:43;;;;;;;19.33;9.90;;;;;;;;;;5080408;28;20040;-71
2022/01/10 15:11:47;;;;;;;18.10;9.27;;;;;;;;;;5092623;28;20046;-70
2022/01/10 15:14:51;;;;;;;20.85;10.98;;;;;;;;;;5080214;28;20388;-75
2022/01/10 15:17:56;;;;;;;22.30;10.88;;;;;;;;;;5092342;28;20047;-72
2022/01/10 15:21:00;;;;;;;21.25;12.23;;;;;;;;;;5090503;28;20054;-70
2022/01/10 15:24:04;;;;;;;12.40;6.97;;;;;;;;;;5092479;28;20051;-70
2022/01/10 15:27:09;;;;;;;15.80;8.23;;;;;;;;;;5079671;28;20032;-70
2022/01/10 15:30:13;;;;;;;15.43;7.75;;;;;;;;;;5092142;28;20047;-72
2022/01/10 15:33:17;;;;;;;18.42;9.32;;;;;;;;;;5092175;28;20057;-72
2022/01/10 15:36:22;;;;;;;14.63;8.00;;;;;;;;;;5092112;28;20495;-71
2022/01/10 15:39:26;;;;;;;13.57;6.85;;;;;;;;;;5092131;28;20055;-70
2022/01/10 15:42:30;;;;;;;15.15;7.55;;;;;;;;;;5067871;28;20044;-71
2022/01/10 15:45:35;;;;;;;14.85;8.25;;;;;;;;;;5091991;28;20052;-71
2022/01/10 15:48:39;;;;;;;16.25;9.07;;;;;;;;;;5091894;28;20433;-72
2022/01/10 15:51:44;;;;;;;18.42;8.05;;;;;;;;;;5091532;28;20040;-71
2022/01/10 15:54:48;;;;;;;12.23;6.40;;;;;;;;;;5091515;28;20040;-72
2022/01/10 15:57:54;;;;;;;9.70;4.50;;;;;;;;;;5079232;28;20047;-72
2022/01/10 16:00:58;;;;;;;10.98;5.00;;;;;;;;;;5067220;28;20032;-70
2022/01/10 16:04:02;;;;;;;19.35;8.63;;;;;;;;;;5091573;28;20057;-73
2022/01/10 16:07:06;;;;;;;13.13;5.78;;;;;;;;;;5079068;28;20036;-71
2022/01/10 16:10:11;;;;;;;20.98;10.57;;;;;;;;;;5078566;28;20502;-71
2022/01/10 16:13:16;;;;;;;26.83;13.15;;;;;;;;;;5079013;28;20062;-71
2022/01/10 16:16:21;;;;;;;25.13;13.60;;;;;;;;;;5091540;28;20050;-69
2022/01/10 16:19:25;;;;;;;30.63;16.90;;;;;;;;;;5091576;28;20047;-71
2022/01/10 16:22:30;;;;;;;39.50;21.73;;;;;;;;;;5091244;28;20059;-71
2022/01/10 16:25:34;;;;;;;42.72;22.85;;;;;;;;;;5090865;28;20043;-70
2022/01/10 16:28:40;;;;;;;46.42;21.15;;;;;;;;;;5090986;28;20043;-73
2022/01/10 16:31:45;;;;;;;69.70;21.90;;;;;;;;;;5091091;28;20046;-73
2022/01/10 16:34:55;;;;;;;51.75;20.08;;;;;;;;;;5091036;28;20043;-71
2022/01/10 16:37:59;;;;;;;55.00;21.35;;;;;;;;;;5090336;28;20380;-72
2022/01/10 16:41:06;;;;;;;16.40;10.20;;;;;;;;;;5090191;28;20060;-72
2022/01/10 16:44:10;;;;;;;24.95;11.50;;;;;;;;;;5078025;28;20043;-72
2022/01/10 16:47:14;;;;;;;26.48;12.88;;;;;;;;;;5078399;28;20051;-71
2022/01/10 16:50:19;;;;;;;20.98;10.13;;;;;;;;;;5077746;28;20039;-71
2022/01/10 16:53:23;;;;;;;15.98;6.40;;;;;;;;;;5090451;28;20047;-70
2022/01/10 16:56:27;;;;;;;19.70;8.48;;;;;;;;;;5090757;28;20036;-70
2022/01/10 16:59:34;;;;;;;16.45;9.88;;;;;;;;;;5078244;28;20396;-70
2022/01/10 17:02:38;;;;;;;11.68;6.30;;;;;;;;;;5090834;28;20055;-72
2022/01/10 17:05:42;;;;;;;22.27;11.48;;;;;;;;;;5078271;28;20044;-68
2022/01/10 17:08:46;;;;;;;17.17;9.40;;;;;;;;;;5090614;28;20066;-71
2022/01/10 17:11:51;;;;;;;13.23;7.43;;;;;;;;;;5066543;28;20039;-75
2022/01/10 17:14:55;;;;;;;13.10;5.75;;;;;;;;;;5090760;28;20036;-71
2022/01/10 17:17:59;;;;;;;17.50;7.30;;;;;;;;;;5090403;28;20119;-73
2022/01/10 17:21:07;;;;;;;10.10;4.60;;;;;;;;;;5090440;28;20038;-72
2022/01/10 17:24:12;;;;;;;7.90;4.25;;;;;;;;;;5090402;28;20053;-73
2022/01/10 17:27:17;;;;;;;24.13;14.82;;;;;;;;;;5077729;28;20040;-70
2022/01/10 17:30:21;;;;;;;18.67;8.48;;;;;;;;;;5090645;28;20399;-75
2022/01/10 17:33:26;;;;;;;13.57;7.50;;;;;;;;;;5078140;28;20043;-74
2022/01/10 17:36:30;;;;;;;12.27;4.38;;;;;;;;;;5091512;28;20048;-74
2022/01/10 17:39:34;;;;;;;9.23;5.07;;;;;;;;;;5094751;28;20055;-72
2022/01/10 17:42:41;;;;;;;9.18;3.97;;;;;;;;;;5094355;28;20044;-70
2022/01/10 17:45:46;;;;;;;8.60;4.13;;;;;;;;;;5094261;28;20479;-69
2022/01/10 17:48:50;;;;;;;12.50;5.22;;;;;;;;;;5081307;28;20040;-68
2022/01/10 17:52:01;;;;;;;36.13;20.75;;;;;;;;;;5081927;28;20051;-71
2022/01/10 17:55:06;;;;;;;12.30;4.40;;;;;;;;;;5094025;28;20039;-69
2022/01/10 17:58:10;;;;;;;15.82;9.30;;;;;;;;;;5094029;28;20043;-74
2022/01/10 18:01:15;;;;;;;41.13;20.35;;;;;;;;;;5093292;28;20032;-70
2022/01/10 18:04:19;;;;;;;13.00;6.38;;;;;;;;;;5080838;28;20047;-73
2022/01/10 18:07:23;;;;;;;13.52;4.85;;;;;;;;;;5093247;28;20039;-70
2022/01/10 18:10:28;;;;;;;15.13;4.85;;;;;;;;;;5093183;28;20529;-71
2022/01/10 18:13:32;;;;;;;10.38;5.43;;;;;;;;;;5069369;28;20369;-70
2022/01/10 18:16:36;;;;;;;8.50;4.47;;;;;;;;;;5092844;28;20407;-70
2022/01/10 18:19:41;;;;;;;14.05;5.65;;;;;;;;;;5093220;28;20424;-70
2022/01/10 18:22:46;;;;;;;17.73;7.88;;;;;;;;;;5080818;28;20048;-71
2022/01/10 18:25:50;;;;;;;21.08;8.63;;;;;;;;;;5080868;28;20404;-70
2022/01/10 18:28:55;;;;;;;9.48;4.50;;;;;;;;;;5093365;28;20380;-69
2022/01/10 18:32:00;;;;;;;18.42;7.43;;;;;;;;;;5080887;28;20040;-70
2022/01/10 18:35:05;;;;;;;11.70;5.40;;;;;;;;;;5080732;28;20047;-70
2022/01/10 18:38:10;;;;;;;12.65;5.35;;;;;;;;;;5080380;28;20079;-71